sensor_id;sensor_type;location;lat;lon;timestamp;P1;durP1;ratioP1;P2;durP2;ratioP2
45842;SDS011;31563;51.744;8.252;2022-08-23T00:01:37;1.88;;;1.20;;
45842;SDS011;31563;51.744;8.252;2022-08-23T00:04:10;3.78;;;1.50;;
45842;SDS011;31563;51.744;8.252;2022-08-23T00:06:43;4.90;;;1.48;;
45842;SDS011;31563;51.744;8.252;2022-08-23T00:09:13;1.98;;;1.27;;
45842;SDS011;31563;51.744;8.252;2022-08-23T00:11:43;4.95;;;1.50;;
45842;SDS011;31563;51.744;8.252;2022-08-23T00:14:14;3.75;;;1.25;;
45842;SDS011;31563;51.744;8.252;2022-08-23T00:16:44;2.78;;;1.02;;
45842;SDS011;31563;51.744;8.252;2022-08-23T00:21:44;2.33;;;1.13;;
45842;SDS011;31563;51.744;8.252;2022-08-23T00:24:13;2.53;;;1.40;;
45842;SDS011;31563;51.744;8.252;2022-08-23T00:26:50;2.25;;;1.20;;
45842;SDS011;31563;51.744;8.252;2022-08-23T00:29:26;2.58;;;1.17;;
45842;SDS011;31563;51.744;8.252;2022-08-23T00:31:56;3.05;;;1.48;;
45842;SDS011;31563;51.744;8.252;2022-08-23T00:34:27;2.33;;;1.15;;
45842;SDS011;31563;51.744;8.252;2022-08-23T00:36:55;2.70;;;1.15;;
45842;SDS011;31563;51.744;8.252;2022-08-23T00:39:23;1.50;;;1.20;;
45842;SDS011;31563;51.744;8.252;2022-08-23T00:41:55;2.70;;;1.52;;
45842;SDS011;31563;51.744;8.252;2022-08-23T00:44:27;2.85;;;1.40;;
45842;SDS011;31563;51.744;8.252;2022-08-23T00:47:16;2.63;;;0.80;;
45842;SDS011;31563;51.744;8.252;2022-08-23T00:50:08;3.10;;;1.33;;
45842;SDS011;31563;51.744;8.252;2022-08-23T00:52:50;2.63;;;1.30;;
45842;SDS011;31563;51.744;8.252;2022-08-23T00:55:24;1.60;;;1.20;;
45842;SDS011;31563;51.744;8.252;2022-08-23T00:57:52;2.42;;;1.50;;
45842;SDS011;31563;51.744;8.252;2022-08-23T01:00:21;4.32;;;1.55;;
45842;SDS011;31563;51.744;8.252;2022-08-23T01:02:51;1.90;;;1.23;;
45842;SDS011;31563;51.744;8.252;2022-08-23T01:05:21;3.13;;;1.35;;
45842;SDS011;31563;51.744;8.252;2022-08-23T01:07:54;3.33;;;1.23;;
45842;SDS011;31563;51.744;8.252;2022-08-23T01:10:25;2.08;;;1.30;;
45842;SDS011;31563;51.744;8.252;2022-08-23T01:12:58;1.48;;;1.02;;
45842;SDS011;31563;51.744;8.252;2022-08-23T01:15:33;3.47;;;1.67;;
45842;SDS011;31563;51.744;8.252;2022-08-23T01:18:05;2.88;;;1.23;;
45842;SDS011;31563;51.744;8.252;2022-08-23T01:20:37;2.55;;;1.20;;
45842;SDS011;31563;51.744;8.252;2022-08-23T01:23:25;1.52;;;1.27;;
45842;SDS011;31563;51.744;8.252;2022-08-23T01:25:56;2.08;;;1.38;;
45842;SDS011;31563;51.744;8.252;2022-08-23T01:28:25;4.60;;;1.40;;
45842;SDS011;31563;51.744;8.252;2022-08-23T01:30:54;3.47;;;1.40;;
45842;SDS011;31563;51.744;8.252;2022-08-23T01:33:22;3.67;;;1.58;;
45842;SDS011;31563;51.744;8.252;2022-08-23T01:35:51;3.47;;;1.50;;
45842;SDS011;31563;51.744;8.252;2022-08-23T01:38:21;2.53;;;1.20;;
45842;SDS011;31563;51.744;8.252;2022-08-23T01:40:54;2.88;;;1.30;;
45842;SDS011;31563;51.744;8.252;2022-08-23T01:43:22;2.25;;;1.13;;
45842;SDS011;31563;51.744;8.252;2022-08-23T01:45:51;3.63;;;1.30;;
45842;SDS011;31563;51.744;8.252;2022-08-23T01:48:21;2.20;;;1.25;;
45842;SDS011;31563;51.744;8.252;2022-08-23T01:50:49;2.45;;;1.58;;
45842;SDS011;31563;51.744;8.252;2022-08-23T01:53:17;2.30;;;1.25;;
45842;SDS011;31563;51.744;8.252;2022-08-23T01:55:45;2.05;;;1.40;;
45842;SDS011;31563;51.744;8.252;2022-08-23T01:58:15;2.78;;;1.20;;
45842;SDS011;31563;51.744;8.252;2022-08-23T02:03:11;2.22;;;1.40;;
45842;SDS011;31563;51.744;8.252;2022-08-23T02:05:41;2.00;;;1.45;;
45842;SDS011;31563;51.744;8.252;2022-08-23T02:08:11;3.58;;;1.35;;
45842;SDS011;31563;51.744;8.252;2022-08-23T02:10:57;2.17;;;1.20;;
45842;SDS011;31563;51.744;8.252;2022-08-23T02:13:26;3.65;;;1.30;;
45842;SDS011;31563;51.744;8.252;2022-08-23T02:18:24;3.00;;;1.43;;
45842;SDS011;31563;51.744;8.252;2022-08-23T02:20:52;4.10;;;1.25;;
45842;SDS011;31563;51.744;8.252;2022-08-23T02:23:21;1.58;;;1.13;;
45842;SDS011;31563;51.744;8.252;2022-08-23T02:25:49;2.63;;;1.40;;
45842;SDS011;31563;51.744;8.252;2022-08-23T02:28:18;3.50;;;1.40;;
45842;SDS011;31563;51.744;8.252;2022-08-23T02:30:48;2.40;;;1.40;;
45842;SDS011;31563;51.744;8.252;2022-08-23T02:33:17;1.90;;;1.30;;
45842;SDS011;31563;51.744;8.252;2022-08-23T02:35:45;2.63;;;1.40;;
45842;SDS011;31563;51.744;8.252;2022-08-23T02:38:14;2.05;;;1.40;;
45842;SDS011;31563;51.744;8.252;2022-08-23T02:40:43;3.47;;;1.23;;
45842;SDS011;31563;51.744;8.252;2022-08-23T02:43:18;2.60;;;1.23;;
45842;SDS011;31563;51.744;8.252;2022-08-23T02:45:47;4.18;;;1.45;;
45842;SDS011;31563;51.744;8.252;2022-08-23T02:48:18;3.25;;;1.60;;
45842;SDS011;31563;51.744;8.252;2022-08-23T02:50:47;2.05;;;1.27;;
45842;SDS011;31563;51.744;8.252;2022-08-23T02:53:16;2.20;;;1.60;;
45842;SDS011;31563;51.744;8.252;2022-08-23T02:55:44;2.20;;;1.35;;
45842;SDS011;31563;51.744;8.252;2022-08-23T02:58:13;2.17;;;1.40;;
45842;SDS011;31563;51.744;8.252;2022-08-23T03:00:45;2.10;;;1.27;;
45842;SDS011;31563;51.744;8.252;2022-08-23T03:03:15;2.30;;;1.30;;
45842;SDS011;31563;51.744;8.252;2022-08-23T03:05:47;2.88;;;1.20;;
45842;SDS011;31563;51.744;8.252;2022-08-23T03:08:16;3.63;;;1.05;;
45842;SDS011;31563;51.744;8.252;2022-08-23T03:10:46;3.45;;;1.70;;
45842;SDS011;31563;51.744;8.252;2022-08-23T03:13:17;2.25;;;1.20;;
45842;SDS011;31563;51.744;8.252;2022-08-23T03:15:46;1.90;;;1.40;;
45842;SDS011;31563;51.744;8.252;2022-08-23T03:18:16;2.55;;;1.40;;
45842;SDS011;31563;51.744;8.252;2022-08-23T03:20:45;2.33;;;1.52;;
45842;SDS011;31563;51.744;8.252;2022-08-23T03:23:14;2.38;;;1.30;;
45842;SDS011;31563;51.744;8.252;2022-08-23T03:25:42;2.30;;;1.25;;
45842;SDS011;31563;51.744;8.252;2022-08-23T03:28:11;1.88;;;1.17;;
45842;SDS011;31563;51.744;8.252;2022-08-23T03:30:39;1.85;;;1.40;;
45842;SDS011;31563;51.744;8.252;2022-08-23T03:33:08;3.63;;;1.50;;
45842;SDS011;31563;51.744;8.252;2022-08-23T03:35:38;1.80;;;1.05;;
45842;SDS011;31563;51.744;8.252;2022-08-23T03:38:06;1.30;;;1.17;;
45842;SDS011;31563;51.744;8.252;2022-08-23T03:40:34;2.67;;;1.42;;
45842;SDS011;31563;51.744;8.252;2022-08-23T03:43:02;2.78;;;1.40;;
45842;SDS011;31563;51.744;8.252;2022-08-23T03:45:31;2.97;;;1.50;;
45842;SDS011;31563;51.744;8.252;2022-08-23T03:47:59;2.15;;;1.08;;
45842;SDS011;31563;51.744;8.252;2022-08-23T03:50:27;2.75;;;1.20;;
45842;SDS011;31563;51.744;8.252;2022-08-23T03:52:57;2.65;;;1.40;;
45842;SDS011;31563;51.744;8.252;2022-08-23T03:55:25;3.60;;;1.23;;
45842;SDS011;31563;51.744;8.252;2022-08-23T03:57:54;2.75;;;1.30;;
45842;SDS011;31563;51.744;8.252;2022-08-23T04:00:22;1.67;;;1.20;;
45842;SDS011;31563;51.744;8.252;2022-08-23T04:02:50;3.67;;;1.30;;
45842;SDS011;31563;51.744;8.252;2022-08-23T04:05:18;1.50;;;1.38;;
45842;SDS011;31563;51.744;8.252;2022-08-23T04:07:46;2.97;;;1.63;;
45842;SDS011;31563;51.744;8.252;2022-08-23T04:10:16;3.13;;;1.10;;
45842;SDS011;31563;51.744;8.252;2022-08-23T04:15:12;1.67;;;1.27;;
45842;SDS011;31563;51.744;8.252;2022-08-23T04:17:41;2.42;;;1.35;;
45842;SDS011;31563;51.744;8.252;2022-08-23T04:20:09;2.28;;;1.30;;
45842;SDS011;31563;51.744;8.252;2022-08-23T04:22:37;2.67;;;1.40;;
45842;SDS011;31563;51.744;8.252;2022-08-23T04:25:06;2.10;;;0.98;;
45842;SDS011;31563;51.744;8.252;2022-08-23T04:27:56;6.27;;;1.97;;
45842;SDS011;31563;51.744;8.252;2022-08-23T04:30:25;3.58;;;1.48;;
45842;SDS011;31563;51.744;8.252;2022-08-23T04:32:53;3.95;;;1.67;;
45842;SDS011;31563;51.744;8.252;2022-08-23T04:35:22;5.03;;;1.67;;
45842;SDS011;31563;51.744;8.252;2022-08-23T04:37:51;4.03;;;1.60;;
45842;SDS011;31563;51.744;8.252;2022-08-23T04:40:20;2.70;;;1.40;;
45842;SDS011;31563;51.744;8.252;2022-08-23T04:43:06;2.08;;;1.50;;
45842;SDS011;31563;51.744;8.252;2022-08-23T04:45:36;3.70;;;1.80;;
45842;SDS011;31563;51.744;8.252;2022-08-23T04:50:37;3.83;;;1.92;;
45842;SDS011;31563;51.744;8.252;2022-08-23T04:53:06;5.75;;;1.92;;
45842;SDS011;31563;51.744;8.252;2022-08-23T04:55:34;4.10;;;1.60;;
45842;SDS011;31563;51.744;8.252;2022-08-23T04:58:03;2.78;;;1.58;;
45842;SDS011;31563;51.744;8.252;2022-08-23T05:00:32;3.83;;;1.98;;
45842;SDS011;31563;51.744;8.252;2022-08-23T05:03:01;4.90;;;1.85;;
45842;SDS011;31563;51.744;8.252;2022-08-23T05:05:29;2.83;;;1.58;;
45842;SDS011;31563;51.744;8.252;2022-08-23T05:07:57;3.88;;;1.40;;
45842;SDS011;31563;51.744;8.252;2022-08-23T05:10:26;5.57;;;1.50;;
45842;SDS011;31563;51.744;8.252;2022-08-23T05:12:55;7.33;;;1.60;;
45842;SDS011;31563;51.744;8.252;2022-08-23T05:15:23;6.00;;;1.80;;
45842;SDS011;31563;51.744;8.252;2022-08-23T05:17:52;5.30;;;1.77;;
45842;SDS011;31563;51.744;8.252;2022-08-23T05:20:20;3.35;;;1.50;;
45842;SDS011;31563;51.744;8.252;2022-08-23T05:22:49;6.57;;;2.13;;
45842;SDS011;31563;51.744;8.252;2022-08-23T05:25:17;7.00;;;2.00;;
45842;SDS011;31563;51.744;8.252;2022-08-23T05:27:45;5.15;;;1.85;;
45842;SDS011;31563;51.744;8.252;2022-08-23T05:30:13;4.05;;;1.50;;
45842;SDS011;31563;51.744;8.252;2022-08-23T05:32:42;7.47;;;1.80;;
45842;SDS011;31563;51.744;8.252;2022-08-23T05:35:11;5.00;;;1.73;;
45842;SDS011;31563;51.744;8.252;2022-08-23T05:37:40;5.00;;;1.60;;
45842;SDS011;31563;51.744;8.252;2022-08-23T05:40:08;3.75;;;1.90;;
45842;SDS011;31563;51.744;8.252;2022-08-23T05:42:37;7.20;;;2.60;;
45842;SDS011;31563;51.744;8.252;2022-08-23T05:45:05;3.08;;;1.67;;
45842;SDS011;31563;51.744;8.252;2022-08-23T05:47:34;6.13;;;1.85;;
45842;SDS011;31563;51.744;8.252;2022-08-23T05:50:03;3.92;;;2.03;;
45842;SDS011;31563;51.744;8.252;2022-08-23T05:52:33;8.45;;;1.80;;
45842;SDS011;31563;51.744;8.252;2022-08-23T05:55:01;6.50;;;2.28;;
45842;SDS011;31563;51.744;8.252;2022-08-23T05:57:30;5.25;;;1.50;;
45842;SDS011;31563;51.744;8.252;2022-08-23T06:00:00;4.20;;;1.80;;
45842;SDS011;31563;51.744;8.252;2022-08-23T06:02:29;6.07;;;2.13;;
45842;SDS011;31563;51.744;8.252;2022-08-23T06:04:57;6.72;;;2.17;;
45842;SDS011;31563;51.744;8.252;2022-08-23T06:07:25;8.07;;;2.05;;
45842;SDS011;31563;51.744;8.252;2022-08-23T06:09:55;3.33;;;1.63;;
45842;SDS011;31563;51.744;8.252;2022-08-23T06:14:51;5.55;;;1.70;;
45842;SDS011;31563;51.744;8.252;2022-08-23T06:17:19;5.88;;;2.03;;
45842;SDS011;31563;51.744;8.252;2022-08-23T06:19:47;2.55;;;1.25;;
45842;SDS011;31563;51.744;8.252;2022-08-23T06:22:15;3.13;;;1.77;;
45842;SDS011;31563;51.744;8.252;2022-08-23T06:24:44;4.10;;;1.73;;
45842;SDS011;31563;51.744;8.252;2022-08-23T06:27:13;7.53;;;1.90;;
45842;SDS011;31563;51.744;8.252;2022-08-23T06:29:42;4.93;;;1.27;;
45842;SDS011;31563;51.744;8.252;2022-08-23T06:32:11;4.03;;;1.50;;
45842;SDS011;31563;51.744;8.252;2022-08-23T06:34:39;5.38;;;1.85;;
45842;SDS011;31563;51.744;8.252;2022-08-23T06:37:08;5.65;;;1.55;;
45842;SDS011;31563;51.744;8.252;2022-08-23T06:39:37;8.60;;;1.60;;
45842;SDS011;31563;51.744;8.252;2022-08-23T06:42:07;6.70;;;1.55;;
45842;SDS011;31563;51.744;8.252;2022-08-23T06:44:58;4.00;;;1.63;;
45842;SDS011;31563;51.744;8.252;2022-08-23T06:47:26;2.53;;;1.55;;
45842;SDS011;31563;51.744;8.252;2022-08-23T06:49:54;6.72;;;1.92;;
45842;SDS011;31563;51.744;8.252;2022-08-23T06:52:24;3.08;;;1.30;;
45842;SDS011;31563;51.744;8.252;2022-08-23T06:57:23;4.57;;;1.83;;
45842;SDS011;31563;51.744;8.252;2022-08-23T06:59:51;4.07;;;1.70;;
45842;SDS011;31563;51.744;8.252;2022-08-23T07:02:21;2.38;;;1.38;;
45842;SDS011;31563;51.744;8.252;2022-08-23T07:07:20;4.18;;;1.60;;
45842;SDS011;31563;51.744;8.252;2022-08-23T07:09:48;3.55;;;1.45;;
45842;SDS011;31563;51.744;8.252;2022-08-23T07:12:16;3.08;;;1.30;;
45842;SDS011;31563;51.744;8.252;2022-08-23T07:14:45;2.97;;;1.30;;
45842;SDS011;31563;51.744;8.252;2022-08-23T07:17:13;4.03;;;1.75;;
45842;SDS011;31563;51.744;8.252;2022-08-23T07:19:43;7.05;;;1.85;;
45842;SDS011;31563;51.744;8.252;2022-08-23T07:22:12;5.03;;;1.75;;
45842;SDS011;31563;51.744;8.252;2022-08-23T07:24:41;5.27;;;1.63;;
45842;SDS011;31563;51.744;8.252;2022-08-23T07:27:09;3.20;;;1.85;;
45842;SDS011;31563;51.744;8.252;2022-08-23T07:29:38;4.25;;;1.80;;
45842;SDS011;31563;51.744;8.252;2022-08-23T07:32:06;4.17;;;1.60;;
45842;SDS011;31563;51.744;8.252;2022-08-23T07:34:35;3.00;;;1.33;;
45842;SDS011;31563;51.744;8.252;2022-08-23T07:37:05;4.18;;;1.85;;
45842;SDS011;31563;51.744;8.252;2022-08-23T07:39:40;3.25;;;1.55;;
45842;SDS011;31563;51.744;8.252;2022-08-23T07:42:09;4.83;;;1.63;;
45842;SDS011;31563;51.744;8.252;2022-08-23T07:44:49;3.92;;;2.00;;
45842;SDS011;31563;51.744;8.252;2022-08-23T07:47:19;2.33;;;1.38;;
45842;SDS011;31563;51.744;8.252;2022-08-23T07:49:47;3.63;;;1.42;;
45842;SDS011;31563;51.744;8.252;2022-08-23T07:52:17;4.60;;;1.40;;
45842;SDS011;31563;51.744;8.252;2022-08-23T07:54:45;4.10;;;1.80;;
45842;SDS011;31563;51.744;8.252;2022-08-23T07:57:15;3.53;;;1.45;;
45842;SDS011;31563;51.744;8.252;2022-08-23T07:59:43;3.87;;;1.87;;
45842;SDS011;31563;51.744;8.252;2022-08-23T08:02:13;4.35;;;1.80;;
45842;SDS011;31563;51.744;8.252;2022-08-23T08:04:41;5.10;;;1.50;;
45842;SDS011;31563;51.744;8.252;2022-08-23T08:07:09;3.88;;;1.50;;
45842;SDS011;31563;51.744;8.252;2022-08-23T08:09:48;5.63;;;1.80;;
45842;SDS011;31563;51.744;8.252;2022-08-23T08:12:16;6.50;;;2.30;;
45842;SDS011;31563;51.744;8.252;2022-08-23T08:14:44;3.03;;;1.60;;
45842;SDS011;31563;51.744;8.252;2022-08-23T08:17:13;3.80;;;1.92;;
45842;SDS011;31563;51.744;8.252;2022-08-23T08:22:11;7.22;;;1.90;;
45842;SDS011;31563;51.744;8.252;2022-08-23T08:24:41;3.85;;;1.90;;
45842;SDS011;31563;51.744;8.252;2022-08-23T08:27:10;4.65;;;2.08;;
45842;SDS011;31563;51.744;8.252;2022-08-23T08:32:07;4.50;;;1.50;;
45842;SDS011;31563;51.744;8.252;2022-08-23T08:34:39;4.03;;;1.48;;
45842;SDS011;31563;51.744;8.252;2022-08-23T08:37:08;7.83;;;1.83;;
45842;SDS011;31563;51.744;8.252;2022-08-23T08:39:36;6.93;;;2.00;;
45842;SDS011;31563;51.744;8.252;2022-08-23T08:45:05;6.60;;;2.30;;
45842;SDS011;31563;51.744;8.252;2022-08-23T08:47:40;4.47;;;1.35;;
45842;SDS011;31563;51.744;8.252;2022-08-23T08:50:14;6.80;;;1.80;;
45842;SDS011;31563;51.744;8.252;2022-08-23T08:52:46;5.25;;;1.58;;
45842;SDS011;31563;51.744;8.252;2022-08-23T08:55:18;7.70;;;1.83;;
45842;SDS011;31563;51.744;8.252;2022-08-23T08:57:51;5.07;;;1.40;;
45842;SDS011;31563;51.744;8.252;2022-08-23T09:00:22;4.90;;;1.92;;
45842;SDS011;31563;51.744;8.252;2022-08-23T09:02:53;5.70;;;1.88;;
45842;SDS011;31563;51.744;8.252;2022-08-23T09:05:25;3.65;;;1.30;;
45842;SDS011;31563;51.744;8.252;2022-08-23T09:08:00;6.87;;;1.50;;
45842;SDS011;31563;51.744;8.252;2022-08-23T09:10:46;4.03;;;1.10;;
45842;SDS011;31563;51.744;8.252;2022-08-23T09:16:35;3.80;;;1.23;;
45842;SDS011;31563;51.744;8.252;2022-08-23T09:19:13;3.30;;;1.10;;
45842;SDS011;31563;51.744;8.252;2022-08-23T09:21:45;3.43;;;1.30;;
45842;SDS011;31563;51.744;8.252;2022-08-23T09:24:15;3.13;;;1.23;;
45842;SDS011;31563;51.744;8.252;2022-08-23T09:26:43;2.08;;;1.08;;
45842;SDS011;31563;51.744;8.252;2022-08-23T09:29:16;2.78;;;0.93;;
45842;SDS011;31563;51.744;8.252;2022-08-23T09:31:47;2.50;;;1.25;;
45842;SDS011;31563;51.744;8.252;2022-08-23T09:34:19;2.38;;;0.90;;
45842;SDS011;31563;51.744;8.252;2022-08-23T09:36:49;2.80;;;1.00;;
45842;SDS011;31563;51.744;8.252;2022-08-23T09:39:25;2.38;;;1.02;;
45842;SDS011;31563;51.744;8.252;2022-08-23T09:41:56;2.90;;;1.13;;
45842;SDS011;31563;51.744;8.252;2022-08-23T09:44:34;2.70;;;0.80;;
45842;SDS011;31563;51.744;8.252;2022-08-23T09:47:07;3.53;;;1.05;;
45842;SDS011;31563;51.744;8.252;2022-08-23T09:49:38;2.07;;;0.90;;
45842;SDS011;31563;51.744;8.252;2022-08-23T09:52:14;3.50;;;0.80;;
45842;SDS011;31563;51.744;8.252;2022-08-23T09:54:55;2.70;;;0.90;;
45842;SDS011;31563;51.744;8.252;2022-08-23T09:57:25;1.85;;;0.90;;
45842;SDS011;31563;51.744;8.252;2022-08-23T09:59:58;2.80;;;0.90;;
45842;SDS011;31563;51.744;8.252;2022-08-23T10:02:30;1.88;;;0.90;;
45842;SDS011;31563;51.744;8.252;2022-08-23T10:05:01;1.80;;;0.77;;
45842;SDS011;31563;51.744;8.252;2022-08-23T10:07:34;1.80;;;0.75;;
45842;SDS011;31563;51.744;8.252;2022-08-23T10:10:19;3.83;;;0.80;;
45842;SDS011;31563;51.744;8.252;2022-08-23T10:12:51;2.83;;;0.80;;
45842;SDS011;31563;51.744;8.252;2022-08-23T10:15:24;2.42;;;0.90;;
45842;SDS011;31563;51.744;8.252;2022-08-23T10:18:04;1.80;;;0.80;;
45842;SDS011;31563;51.744;8.252;2022-08-23T10:20:38;1.47;;;0.70;;
45842;SDS011;31563;51.744;8.252;2022-08-23T10:23:15;1.73;;;0.75;;
45842;SDS011;31563;51.744;8.252;2022-08-23T10:25:51;1.83;;;0.70;;
45842;SDS011;31563;51.744;8.252;2022-08-23T10:28:26;2.80;;;0.80;;
45842;SDS011;31563;51.744;8.252;2022-08-23T10:31:24;2.10;;;0.60;;
45842;SDS011;31563;51.744;8.252;2022-08-23T10:34:08;2.90;;;0.67;;
45842;SDS011;31563;51.744;8.252;2022-08-23T10:36:53;2.03;;;0.70;;
45842;SDS011;31563;51.744;8.252;2022-08-23T10:39:30;2.67;;;0.70;;
45842;SDS011;31563;51.744;8.252;2022-08-23T10:42:00;1.10;;;0.55;;
45842;SDS011;31563;51.744;8.252;2022-08-23T10:44:33;1.52;;;0.68;;
45842;SDS011;31563;51.744;8.252;2022-08-23T10:47:12;1.88;;;0.60;;
45842;SDS011;31563;51.744;8.252;2022-08-23T10:49:45;2.30;;;0.70;;
45842;SDS011;31563;51.744;8.252;2022-08-23T10:52:18;2.08;;;0.60;;
45842;SDS011;31563;51.744;8.252;2022-08-23T10:54:51;1.15;;;0.60;;
45842;SDS011;31563;51.744;8.252;2022-08-23T10:57:30;2.78;;;1.00;;
45842;SDS011;31563;51.744;8.252;2022-08-23T11:00:03;1.38;;;0.60;;
45842;SDS011;31563;51.744;8.252;2022-08-23T11:02:39;1.40;;;0.60;;
45842;SDS011;31563;51.744;8.252;2022-08-23T11:05:18;2.03;;;0.73;;
45842;SDS011;31563;51.744;8.252;2022-08-23T11:07:56;1.73;;;0.70;;
45842;SDS011;31563;51.744;8.252;2022-08-23T11:10:31;3.47;;;0.60;;
45842;SDS011;31563;51.744;8.252;2022-08-23T11:13:23;1.77;;;0.70;;
45842;SDS011;31563;51.744;8.252;2022-08-23T11:15:56;2.13;;;0.65;;
45842;SDS011;31563;51.744;8.252;2022-08-23T11:18:39;1.70;;;0.75;;
45842;SDS011;31563;51.744;8.252;2022-08-23T11:21:11;1.75;;;0.60;;
45842;SDS011;31563;51.744;8.252;2022-08-23T11:27:01;2.13;;;0.60;;
45842;SDS011;31563;51.744;8.252;2022-08-23T11:29:33;2.60;;;0.73;;
45842;SDS011;31563;51.744;8.252;2022-08-23T11:32:18;2.10;;;0.80;;
45842;SDS011;31563;51.744;8.252;2022-08-23T11:34:59;2.78;;;0.70;;
45842;SDS011;31563;51.744;8.252;2022-08-23T11:40:41;1.85;;;0.60;;
45842;SDS011;31563;51.744;8.252;2022-08-23T11:43:26;2.25;;;0.70;;
45842;SDS011;31563;51.744;8.252;2022-08-23T11:49:00;1.65;;;0.70;;
45842;SDS011;31563;51.744;8.252;2022-08-23T11:51:59;1.90;;;0.60;;
45842;SDS011;31563;51.744;8.252;2022-08-23T11:54:44;1.70;;;0.50;;
45842;SDS011;31563;51.744;8.252;2022-08-23T11:57:28;1.80;;;0.70;;
45842;SDS011;31563;51.744;8.252;2022-08-23T12:00:14;1.95;;;0.60;;
45842;SDS011;31563;51.744;8.252;2022-08-23T12:02:57;1.90;;;0.70;;
45842;SDS011;31563;51.744;8.252;2022-08-23T12:05:42;3.00;;;0.70;;
45842;SDS011;31563;51.744;8.252;2022-08-23T12:14:47;1.60;;;0.68;;
45842;SDS011;31563;51.744;8.252;2022-08-23T12:20:26;1.23;;;0.57;;
45842;SDS011;31563;51.744;8.252;2022-08-23T12:23:10;1.75;;;0.60;;
45842;SDS011;31563;51.744;8.252;2022-08-23T12:25:43;2.20;;;0.60;;
45842;SDS011;31563;51.744;8.252;2022-08-23T12:28:22;2.53;;;0.73;;
45842;SDS011;31563;51.744;8.252;2022-08-23T12:31:01;1.20;;;0.70;;
45842;SDS011;31563;51.744;8.252;2022-08-23T12:33:40;2.65;;;0.50;;
45842;SDS011;31563;51.744;8.252;2022-08-23T12:36:16;1.50;;;0.60;;
45842;SDS011;31563;51.744;8.252;2022-08-23T12:38:53;1.35;;;0.60;;
45842;SDS011;31563;51.744;8.252;2022-08-23T12:41:29;2.60;;;0.63;;
45842;SDS011;31563;51.744;8.252;2022-08-23T12:44:00;2.25;;;0.70;;
45842;SDS011;31563;51.744;8.252;2022-08-23T12:46:32;2.80;;;0.60;;
45842;SDS011;31563;51.744;8.252;2022-08-23T12:49:04;2.15;;;0.70;;
45842;SDS011;31563;51.744;8.252;2022-08-23T12:51:38;1.08;;;0.60;;
45842;SDS011;31563;51.744;8.252;2022-08-23T12:54:11;1.50;;;0.60;;
45842;SDS011;31563;51.744;8.252;2022-08-23T12:56:43;2.10;;;0.70;;
45842;SDS011;31563;51.744;8.252;2022-08-23T12:59:26;1.88;;;0.65;;
45842;SDS011;31563;51.744;8.252;2022-08-23T13:02:00;2.83;;;0.60;;
45842;SDS011;31563;51.744;8.252;2022-08-23T13:04:30;5.77;;;1.30;;
45842;SDS011;31563;51.744;8.252;2022-08-23T13:07:00;9.85;;;1.55;;
45842;SDS011;31563;51.744;8.252;2022-08-23T13:09:32;5.82;;;1.02;;
45842;SDS011;31563;51.744;8.252;2022-08-23T13:12:04;2.38;;;1.05;;
45842;SDS011;31563;51.744;8.252;2022-08-23T13:14:34;5.28;;;0.90;;
45842;SDS011;31563;51.744;8.252;2022-08-23T13:22:58;3.83;;;0.80;;
45842;SDS011;31563;51.744;8.252;2022-08-23T13:25:29;3.90;;;0.90;;
45842;SDS011;31563;51.744;8.252;2022-08-23T13:28:02;3.17;;;0.98;;
45842;SDS011;31563;51.744;8.252;2022-08-23T13:30:33;1.83;;;0.93;;
45842;SDS011;31563;51.744;8.252;2022-08-23T13:33:16;2.72;;;0.90;;
45842;SDS011;31563;51.744;8.252;2022-08-23T13:35:47;2.92;;;0.80;;
45842;SDS011;31563;51.744;8.252;2022-08-23T13:38:19;4.22;;;0.98;;
45842;SDS011;31563;51.744;8.252;2022-08-23T13:40:54;3.47;;;0.80;;
45842;SDS011;31563;51.744;8.252;2022-08-23T13:43:28;2.85;;;0.98;;
45842;SDS011;31563;51.744;8.252;2022-08-23T13:45:59;3.80;;;1.00;;
45842;SDS011;31563;51.744;8.252;2022-08-23T13:48:42;3.10;;;0.95;;
45842;SDS011;31563;51.744;8.252;2022-08-23T13:51:18;2.45;;;0.80;;
45842;SDS011;31563;51.744;8.252;2022-08-23T13:53:51;3.10;;;1.00;;
45842;SDS011;31563;51.744;8.252;2022-08-23T13:56:19;2.38;;;0.90;;
45842;SDS011;31563;51.744;8.252;2022-08-23T13:58:54;3.00;;;0.80;;
45842;SDS011;31563;51.744;8.252;2022-08-23T14:01:24;1.67;;;0.80;;
45842;SDS011;31563;51.744;8.252;2022-08-23T14:03:53;1.75;;;0.80;;
45842;SDS011;31563;51.744;8.252;2022-08-23T14:06:22;2.40;;;0.70;;
45842;SDS011;31563;51.744;8.252;2022-08-23T14:08:50;3.85;;;0.93;;
45842;SDS011;31563;51.744;8.252;2022-08-23T14:11:18;2.38;;;0.90;;
45842;SDS011;31563;51.744;8.252;2022-08-23T14:13:47;2.22;;;0.80;;
45842;SDS011;31563;51.744;8.252;2022-08-23T14:16:19;2.53;;;0.80;;
45842;SDS011;31563;51.744;8.252;2022-08-23T14:18:59;4.03;;;1.10;;
45842;SDS011;31563;51.744;8.252;2022-08-23T14:21:48;5.57;;;1.00;;
45842;SDS011;31563;51.744;8.252;2022-08-23T14:24:17;3.20;;;1.00;;
45842;SDS011;31563;51.744;8.252;2022-08-23T14:26:46;3.10;;;1.08;;
45842;SDS011;31563;51.744;8.252;2022-08-23T14:29:17;3.67;;;1.03;;
45842;SDS011;31563;51.744;8.252;2022-08-23T14:31:49;6.55;;;1.15;;
45842;SDS011;31563;51.744;8.252;2022-08-23T14:34:19;3.20;;;1.10;;
45842;SDS011;31563;51.744;8.252;2022-08-23T14:36:47;6.10;;;1.10;;
45842;SDS011;31563;51.744;8.252;2022-08-23T14:39:36;3.53;;;1.00;;
45842;SDS011;31563;51.744;8.252;2022-08-23T14:42:05;5.85;;;1.20;;
45842;SDS011;31563;51.744;8.252;2022-08-23T14:44:33;4.38;;;1.42;;
45842;SDS011;31563;51.744;8.252;2022-08-23T14:47:03;3.42;;;1.10;;
45842;SDS011;31563;51.744;8.252;2022-08-23T14:49:32;5.93;;;1.30;;
45842;SDS011;31563;51.744;8.252;2022-08-23T14:52:01;4.82;;;1.23;;
45842;SDS011;31563;51.744;8.252;2022-08-23T14:54:30;3.97;;;1.23;;
45842;SDS011;31563;51.744;8.252;2022-08-23T14:56:59;3.78;;;1.25;;
45842;SDS011;31563;51.744;8.252;2022-08-23T14:59:27;7.65;;;1.33;;
45842;SDS011;31563;51.744;8.252;2022-08-23T15:01:56;6.38;;;1.50;;
45842;SDS011;31563;51.744;8.252;2022-08-23T15:04:26;3.35;;;1.08;;
45842;SDS011;31563;51.744;8.252;2022-08-23T15:07:00;3.60;;;1.10;;
45842;SDS011;31563;51.744;8.252;2022-08-23T15:09:45;5.68;;;1.38;;
45842;SDS011;31563;51.744;8.252;2022-08-23T15:12:14;2.78;;;0.70;;
45842;SDS011;31563;51.744;8.252;2022-08-23T15:15:03;3.65;;;1.05;;
45842;SDS011;31563;51.744;8.252;2022-08-23T15:17:36;3.53;;;1.10;;
45842;SDS011;31563;51.744;8.252;2022-08-23T15:20:06;2.35;;;1.02;;
45842;SDS011;31563;51.744;8.252;2022-08-23T15:22:34;2.35;;;0.90;;
45842;SDS011;31563;51.744;8.252;2022-08-23T15:25:10;3.38;;;1.10;;
45842;SDS011;31563;51.744;8.252;2022-08-23T15:27:39;17.63;;;1.85;;
45842;SDS011;31563;51.744;8.252;2022-08-23T15:30:08;12.85;;;2.35;;
45842;SDS011;31563;51.744;8.252;2022-08-23T15:32:37;6.97;;;1.52;;
45842;SDS011;31563;51.744;8.252;2022-08-23T15:35:19;6.80;;;2.13;;
45842;SDS011;31563;51.744;8.252;2022-08-23T15:37:47;6.95;;;1.90;;
45842;SDS011;31563;51.744;8.252;2022-08-23T15:40:16;11.93;;;2.40;;
45842;SDS011;31563;51.744;8.252;2022-08-23T15:42:44;7.90;;;2.88;;
45842;SDS011;31563;51.744;8.252;2022-08-23T15:47:42;5.93;;;1.92;;
45842;SDS011;31563;51.744;8.252;2022-08-23T15:50:16;4.18;;;1.90;;
45842;SDS011;31563;51.744;8.252;2022-08-23T15:52:48;4.72;;;1.83;;
45842;SDS011;31563;51.744;8.252;2022-08-23T15:55:16;15.73;;;2.53;;
45842;SDS011;31563;51.744;8.252;2022-08-23T15:57:45;8.30;;;1.80;;
45842;SDS011;31563;51.744;8.252;2022-08-23T16:00:16;10.32;;;2.00;;
45842;SDS011;31563;51.744;8.252;2022-08-23T16:02:46;7.28;;;1.60;;
45842;SDS011;31563;51.744;8.252;2022-08-23T16:05:36;6.60;;;1.95;;
45842;SDS011;31563;51.744;8.252;2022-08-23T16:08:06;8.85;;;1.52;;
45842;SDS011;31563;51.744;8.252;2022-08-23T16:10:39;8.60;;;1.40;;
45842;SDS011;31563;51.744;8.252;2022-08-23T16:13:07;3.80;;;1.40;;
45842;SDS011;31563;51.744;8.252;2022-08-23T16:15:36;4.20;;;1.40;;